This is the latest recevied weather packets stored in our database for station/object OE-11053. If no packets are shown the sender has not sent any weather packets the latest 10 day(s).
| Time | Temp. | Humidity | Pressure | Rain* | Wind** | Luminosity | Snow |
|---|---|---|---|---|---|---|---|
| 1788033923 | 17.22° C | 84% | 1016 hPa | 0 mm | - | 0 W/m² | - |
| 1788033323 | 17.78° C | 83% | 1015.9 hPa | 0 mm | - | 0 W/m² | - |
| 1788032496 | 17.78° C | 82% | 1015.8 hPa | 0 mm | - | 0 W/m² | - |
| 1788032123 | 17.78° C | 81% | 1015.7 hPa | 0 mm | - | 0 W/m² | - |
| 1788031523 | 18.33° C | 81% | 1015.6 hPa | 0 mm | - | 0 W/m² | - |
| 1788030696 | 18.89° C | 78% | 1015.5 hPa | 0 mm | - | 0 W/m² | - |
| 1788030323 | 18.89° C | 77% | 1015.5 hPa | 0 mm | - | 0 W/m² | - |
| 1788029723 | 19.44° C | 75% | 1015.4 hPa | 0 mm | - | 0 W/m² | - |
| 1788028896 | 19.44° C | 73% | 1015.4 hPa | 0 mm | - | 0 W/m² | - |
| 1788028523 | 20° C | 69% | 1015.2 hPa | 0 mm | - | 0 W/m² | - |
| 1788027923 | 20.56° C | 66% | 1014.9 hPa | 0 mm | - | 0 W/m² | - |
| 1788027096 | 20.56° C | 64% | 1014.9 hPa | 0 mm | - | 0 W/m² | - |
| 1788026723 | 21.11° C | 62% | 1014.7 hPa | 0 mm | - | 6 W/m² | - |
| 1788026123 | 21.67° C | 59% | 1014.6 hPa | 0 mm | - | 13 W/m² | - |
| 1788025296 | 22.22° C | 55% | 1014.5 hPa | 0 mm | - | 19 W/m² | - |
| 1788024923 | 22.22° C | 55% | 1014.5 hPa | 0 mm | - | 26 W/m² | - |
| 1788024323 | 22.22° C | 55% | 1014.6 hPa | 0 mm | - | 38 W/m² | - |
| 1788023496 | 22.78° C | 52% | 1014.5 hPa | 0 mm | - | 45 W/m² | - |
| 1788023122 | 23.33° C | 50% | 1014.4 hPa | 0 mm | - | 58 W/m² | - |
| 1788022523 | 23.89° C | 46% | 1014.4 hPa | 0 mm | - | 83 W/m² | - |
| 1788021696 | 23.89° C | 46% | 1014.6 hPa | 0 mm | - | 115 W/m² | - |
| 1788021323 | 23.33° C | 48% | 1014.8 hPa | 0 mm | - | 121 W/m² | - |
| 1788020722 | 23.33° C | 49% | 1014.8 hPa | 0 mm | - | 70 W/m² | - |
| 1788019896 | 23.33° C | 48% | 1014.7 hPa | 0 mm | - | 64 W/m² | - |
| 1788019523 | 23.89° C | 47% | 1014.7 hPa | 0 mm | - | 70 W/m² | - |
* Rain latest hour (hover to see other rain measurements)
** Current wind speed in m/s (hover to see current wind gust speed)